Incline Creek, Nevada Weather observations

Data are for observation ending at time listed.
 Day   Time    Ave.   Ave.  Ave.  Vector   Max.   Stn.    Total    Solar   Ave.   Snow 
  of    of     Air    Rel.  Wind   Wind    Wind   Baro.  Precip.   Rad.    Soil   Depth
Year   Day     Temp.  Hum.  Speed  Dir.    Gust   Pres.                    Temp.       
2014   (PST)    F      %     mph   deg.    mph     mb.     in.     W/m2     F      in. 
---------------------------------------------------------------------------------------  
 202   13:40   66.0    50    4.9   146     11.0   999.0    0.00     584    999.0    0.0
 202   13:50   67.0    48    4.6   140     10.5   999.0    0.00     762    999.0    0.0
 202   14:00   67.8    48    5.6   136     12.1   999.0    0.00     875    999.0    0.0
 202   14:10   67.3    49    4.2   142     11.8   999.0    0.00     742    999.0    0.0
 202   14:20   67.3    50    4.5   142      9.9   999.0    0.00     827    999.0   83.9
 202   14:30   67.7    49    4.9   154     11.5   999.0    0.00     798    999.0    0.0
 202   14:40   67.3    49    4.8   138     13.8   999.0    0.00     784    999.0    0.0
 202   14:50   67.8    47    3.9   145     11.8   999.0    0.00     769    999.0    0.0
 202   15:00   68.5    46    3.6   148      7.9   999.0    0.00     754    999.0   83.9
 202   15:10   68.1    46    4.5   155     14.0   999.0    0.00     623    999.0   83.9
 202   15:20   67.7    47    6.1   140     14.5   999.0    0.00     705    999.0   83.9
 202   15:30   67.8    46    6.1   131     12.6   999.0    0.00     648    999.0   83.9
 202   15:40   67.4    48    6.7   129     12.4   999.0    0.00     482    999.0   83.9
 202   15:50   65.5    50    5.5   130     12.4   999.0    0.00     170    999.0   83.9
 202   16:00   65.6    49    4.6   127      9.5   999.0    0.00     361    999.0   83.9
 202   16:10   66.7    48    6.4   126     15.0   999.0    0.00     639    999.0   83.9
 202   16:20   67.2    46    6.2   132     11.2   999.0    0.00     582    999.0   83.9
 202   16:30   66.8    46    6.7   140     13.6   999.0    0.00     576    999.0   83.9
 202   16:40   67.0    45    4.6   129     14.4   999.0    0.00     538    999.0   83.9
 202   16:50   66.6    47    6.0   132     11.3   999.0    0.00     493    999.0   83.9
 202   17:00   66.4    47    5.2   132     11.7   999.0    0.00     436    999.0   83.9
 202   17:10   65.8    48    5.0   130     10.8   999.0    0.00     230    999.0   83.9
 202   17:20   64.8    49    5.6   124     12.1   999.0    0.00      99    999.0   83.9
 202   17:30   64.4    50    5.1   136     11.8   999.0    0.00     103    999.0   83.9
 202   17:40   64.3    52    3.3   130      8.3   999.0    0.00     131    999.0   83.9
 202   17:50   64.1    52    4.0   122      8.7   999.0    0.00      92    999.0   83.9
 202   18:00   63.8    52    4.0   124      9.5   999.0    0.00      60    999.0   83.9
 202   18:10   63.6    52    3.4   110      9.0   999.0    0.00      57    999.0   83.9
 202   18:20   63.1    54    3.5   107      7.6   999.0    0.00      47    999.0   83.9
 202   18:30   63.0    55    2.9   110      6.7   999.0    0.00      54    999.0   83.9
 202   18:40   62.9    54    3.5   125      6.8   999.0    0.00      26    999.0   83.9
 202   18:50   62.6    55    2.5   100      4.8   999.0    0.00      23    999.0   83.9
 202   19:00   62.2    56    3.7   119      8.8   999.0    0.00      15    999.0   83.9
 202   19:10   61.9    58    3.0   109      5.9   999.0    0.00       2    999.0   83.9
 202   19:20   61.8    58    3.2   127      6.8   999.0    0.00       0    999.0   83.9
 202   19:30   61.6    58    3.9   138      7.0   999.0    0.00       0    999.0   83.9
 202   19:40   61.3    60    3.4   150      6.6   999.0    0.00       0    999.0   83.9
 202   19:50   60.8    61    2.3   113      4.4   999.0    0.00       0    999.0   83.9
 202   20:00   60.7    61    1.9   112      5.2   999.0    0.00       0    999.0   83.9
 202   20:10   60.1    63    0.6    76      2.9   999.0    0.00       0    999.0   83.9
 202   20:20   59.7    64    1.4   103      2.6   999.0    0.00       0    999.0   83.9
 202   20:30   59.4    64    0.9     4      2.5   999.0    0.00       0    999.0   83.9
 202   20:40   59.3    65    0.5   293      1.4   999.0    0.00       0    999.0    0.0
 202   20:50   58.8    67    0.3    20      1.2   999.0    0.00       0    999.0   83.9
 202   21:00   58.3    69    0.3    48      1.4   999.0    0.00       0    999.0   83.9
 202   21:10   57.7    70    1.6    18      3.1   999.0    0.00       0    999.0   83.9
 202   21:20   57.1    72    1.5   314      2.7   999.0    0.00       0    999.0   83.9
 202   21:30   56.6    74    1.3   327      2.5   999.0    0.00       0    999.0   83.9
 202   21:40   55.9    76    0.8     8      2.7   999.0    0.00       0    999.0   83.9
 202   21:50   55.0    79    0.9    19      2.1   999.0    0.00       0    999.0   83.9
 202   22:00   54.5    80    1.1    18      2.5   999.0    0.00       0    999.0   83.9
 202   22:10   53.6    84    1.2    41      3.2   999.0    0.00       0    999.0    0.0
 202   22:20   53.1    86    1.4    22      2.5   999.0    0.00       0    999.0   83.9
 202   22:30   52.6    87    0.7    31      1.5   999.0    0.00       0    999.0   83.9
 202   22:40   52.3    88    0.7    15      2.6   999.0    0.00       0    999.0   83.9
 202   22:50   52.1    90    1.3    24      2.9   999.0    0.00       0    999.0    0.0
 202   23:00   51.8    91    1.5    11      3.4   999.0    0.00       0    999.0   83.9
 202   23:10   51.9    89    1.1   345      2.7   999.0    0.00       0    999.0   83.9
 202   23:20   52.1    88    1.6   303      2.6   999.0    0.00       0    999.0   83.9
 202   23:30   52.1    88    1.6   342      3.0   999.0    0.00       0    999.0   83.9
 202   23:40   51.5    90    1.1   325      3.4   999.0    0.00       0    999.0   83.9
 202   23:50   51.5    90    2.1     1      3.4   999.0    0.00       0    999.0   83.9
 203    0:00   50.7    94    1.4     5      3.9   999.0    0.00       0    999.0   83.9
 203    0:10   50.5    96    1.2   343      2.9   999.0    0.00       0    999.0   83.9
 203    0:20   50.5    95    2.2    17      4.3   999.0    0.00       0    999.0   83.9
 203    0:30   50.1    97    2.0    21      3.7   999.0    0.00       0    999.0   83.9
 203    0:40   50.0    98    1.2    26      2.2   999.0    0.00       0    999.0   83.9
 203    0:50   49.8    99    1.9    13      3.3   999.0    0.00       0    999.0   83.9
 203    1:00   49.9    99    1.7    24      2.9   999.0    0.00       0    999.0    0.0
 203    1:10   49.7    99    1.3    22      1.8   999.0    0.00       0    999.0   83.9
 203    1:20   49.7   100    1.0    16      2.5   999.0    0.00       0    999.0   83.9
 203    1:30   49.9   100    2.2    20      2.9   999.0    0.00       0    999.0   83.9
 203    1:40   50.2    98    2.3    23      3.4   999.0    0.00       0    999.0   83.9
 203    1:50   50.1    99    2.6    23      4.0   999.0    0.00       0    999.0   83.9
 203    2:00   50.1    99    2.1    19      3.1   999.0    0.00       0    999.0   83.9
 203    2:10   49.9   100    2.6    24      3.6   999.0    0.00       0    999.0   83.9
 203    2:20   49.8   100    2.3    22      3.3   999.0    0.00       0    999.0   83.9
 203    2:30   49.9   100    1.8    24      3.0   999.0    0.00       0    999.0   83.9
 203    2:40   50.2    98    1.8    20      3.6   999.0    0.00       0    999.0   83.9
 203    2:50   50.8    93    2.3   353      3.7   999.0    0.00       0    999.0   83.9
 203    3:00   51.5    89    1.4   335      2.9   999.0    0.00       0    999.0   83.9
 203    3:10   51.7    88    1.5   359      2.1   999.0    0.00       0    999.0   83.9
 203    3:20   50.8    93    3.4   358      6.2   999.0    0.00       0    999.0   83.9
 203    3:30   51.7    89    3.9   330      7.4   999.0    0.00       0    999.0   83.9
 203    3:40   52.1    87    3.2   352      5.4   999.0    0.00       0    999.0   83.9
 203    3:50   52.1    88    2.7   359      4.4   999.0    0.00       0    999.0   83.9
 203    4:00   52.4    87    3.4     2      6.5   999.0    0.00       0    999.0   83.9
 203    4:10   52.6    86    3.7   347      7.2   999.0    0.00       0    999.0   83.9
 203    4:20   53.8    81    3.3   330      7.9   999.0    0.00       0    999.0   83.9
 203    4:30   55.1    76    3.3   319      6.4   999.0    0.00       1    999.0   83.9
 203    4:40   54.9    77    2.6   335      5.0   999.0    0.00       1    999.0   83.9
 203    4:50   54.0    81    3.0   356      5.9   999.0    0.00       5    999.0   83.9
 203    5:00   52.7    86    3.4   357      5.5   999.0    0.00      17    999.0   83.9
 203    5:10   52.6    86    2.4   354      4.4   999.0    0.00      28    999.0   83.9
 203    5:20   52.6    87    1.8   345      4.7   999.0    0.00      45    999.0   83.9
 203    5:30   52.3    90    1.0   352      2.2   999.0    0.00      65    999.0   83.9
 203    5:40   52.6    90    1.8    16      3.9   999.0    0.00      80    999.0   83.9
 203    5:50   53.2    89    1.6   348      3.0   999.0    0.00      58    999.0   83.9
 203    6:00   53.1    92    1.2    34      2.3   999.0    0.00      83    999.0   83.9
 203    6:10   53.3    93    1.6    16      2.8   999.0    0.00      94    999.0   83.9
 203    6:20   54.1    92    1.4    10      2.5   999.0    0.00     116    999.0   83.9
 203    6:30   55.5    88    1.8   350      4.4   999.0    0.00     132    999.0   83.9
 203    6:40   56.6    85    0.5    22      2.2   999.0    0.00     164    999.0   83.9
 203    6:50   57.5    83    1.4     6      2.9   999.0    0.00     183    999.0   83.9
 203    7:00   58.4    81    0.8    34      2.0   999.0    0.00     252    999.0   83.9
 203    7:10   61.0    69    1.3    56      2.7   999.0    0.00     334    999.0   83.9
 203    7:20   62.2    62    0.7   109      2.0   999.0    0.00     329    999.0   83.9
 203    7:30   61.9    65    4.0   150      7.2   999.0    0.00     275    999.0   83.9
 203    7:40   60.9    68    3.9   157      6.5   999.0    0.00     394    999.0   83.9
 203    7:50   61.6    66    4.0   159      7.5   999.0    0.00     456    999.0   83.9
 203    8:00   61.7    69    3.2   145      8.1   999.0    0.00     460    999.0   83.9
 203    8:10   62.0    69    2.9   139      5.3   999.0    0.00     480    999.0   83.9
 203    8:20   62.8    68    3.2   142      9.7   999.0    0.00     662    999.0   83.9
 203    8:30   63.1    66    3.0   132      5.1   999.0    0.00     398    999.0   83.9
 203    8:40   62.5    66    2.4   124      6.6   999.0    0.00     400    999.0   83.9
 203    8:50   63.3    63    3.0   147      6.1   999.0    0.00     649    999.0    0.0
 203    9:00   63.8    60    3.7   165      8.1   999.0    0.00     486    999.0   83.9
 203    9:10   62.9    60    3.0   149     10.5   999.0    0.00     245    999.0   83.9
 203    9:20   63.2    59    4.3   152      8.1   999.0    0.00     593    999.0   83.9
 203    9:30   64.0    57    4.2   136      7.4   999.0    0.00     596    999.0   83.9
 203    9:40   64.4    54    4.4   159      8.8   999.0    0.00     741    999.0   83.9
 203    9:50   65.2    53    3.8   157      7.5   999.0    0.00     780    999.0   83.9
 203   10:00   65.4    52    3.3   146      6.8   999.0    0.00     824    999.0    0.0
 203   10:10   66.1    50    3.8   155      9.6   999.0    0.00     817    999.0    0.0
 203   10:20   66.0    49    3.2   163      6.4   999.0    0.00     786    999.0    0.0
 203   10:30   66.1    49    5.2   150     10.2   999.0    0.00     776    999.0   83.9
 203   10:40   66.3    46    5.1   154      8.2   999.0    0.00     883    999.0   83.9
 203   10:50   67.7    41    3.6   134      9.0   999.0    0.00     897    999.0   83.9
 203   11:00   69.0    36    3.6   168      7.9   999.0    0.00     945    999.0   83.9
 203   11:10   69.2    33    2.4    49      8.1   999.0    0.00     951    999.0   83.9
 203   11:20   69.5    34    3.9   144      9.8   999.0    0.00     904    999.0   83.9
 203   11:30   69.5    36    2.9   153      9.9   999.0    0.00     935    999.0   83.9
 203   11:40   69.9    35    3.3   136     11.2   999.0    0.00     788    999.0   83.9
 203   11:50   69.0    36    3.3   143      7.1   999.0    0.00     832    999.0   83.9
 203   12:00   69.3    34    3.8   155      9.1   999.0    0.00     927    999.0    0.0
 203   12:10   69.6    34    3.4   152      7.9   999.0    0.00     914    999.0   83.9
 203   12:20   70.3    34    4.4   160     12.7   999.0    0.00     948    999.0   83.9
 203   12:30   70.1    32    3.8   159      8.4   999.0    0.00     852    999.0    0.0
 203   12:40   70.2    32    2.8   173      8.5   999.0    0.00     767    999.0   83.9
 203   12:50   69.9    32    3.5   149      9.9   999.0    0.00     757    999.0    0.0
 203   13:00   70.6    31    3.4   153      7.8   999.0    0.00     783    999.0   83.9
 203   13:10   70.4    31    4.8   162      8.6   999.0    0.00     646    999.0    0.0
 203   13:20   70.1    31    4.2   151      8.5   999.0    0.00     555    999.0    0.0
 203   13:30   70.0    31    4.7   148      8.9   999.0    0.00     604    999.0   83.9

Return to Incline Creek graphs page.


Western Regional Climate Center,wrcc@dri.edu